Aviation Digital Data Service (ADDS)

Output produced by METARs form (1113 UTC 01 September 2014)
found at http://aviationweather.gov/adds/metars/
 
KDAG 011050Z AUTO 26010KT 10SM CLR 24/07 A2980 RMK AO2 SLP061 T02390067 TSNO
KDAG 010520Z 0106/0206 25014KT P6SM SKC 
     FM011000 28009KT P6SM SKC 
     FM012000 07008KT P6SM SKC 
     FM020200 25010KT P6SM SKC
       
KEDW 011058Z AUTO 20012KT 10SM CLR 22/01 A2981 RMK AO2 SLP067 T02170007
KVCV 011055Z AUTO 19008KT 10SM CLR 21/07 A2988 RMK AO2
KONT 011053Z 00000KT 6SM BR CLR 20/18 A2982 RMK AO2 SLP079 T02000178
KONT 010520Z 0106/0212 VRB05KT P6SM SKC 
     FM012030 25013KT P6SM SKC 
     FM020400 VRB05KT P6SM SKC 
     FM021000 VRB05KT 4SM BR SCT009
       
KSNA 011100Z AUTO 13005KT 10SM SCT015 23/18 A2980 RMK AO2 TSNO
KSNA 010520Z 0106/0206 17006KT P6SM SCT012 
     FM010700 18006KT P6SM OVC012 
     FM011700 20006KT P6SM SCT015 
     FM012000 22010KT P6SM FEW017 
     FM020400 VRB05KT P6SM BKN015
       
KSAN 011051Z 16009KT 10SM BKN008 20/17 A2982 RMK AO2 SLP098 T02000172 $
KSAN 010903Z 0109/0212 17008KT P6SM OVC008 
     TEMPO 0110/0114 5SM BR OVC006 
     FM011630 VRB05KT P6SM SCT012 
     FM011900 20009KT P6SM FEW015 
     FM020300 VRB05KT P6SM BKN012
       
KNID 011056Z AUTO 18003KT 10SM CLR 19/M01 A2980 RMK AO2 SLP068 T01941011
KNXP 011056Z AUTO 29008KT 10SM CLR 25/05 A2987 RMK AO2 SLP072 T02500050
TAF KNXP 0109/0209 29009KT 9999 SKC QNH2983INS 
     BECMG 0115/0117 VRB05KT QNH2980INS AUTOMATED SENSOR METWATCH 0109 TIL 0315 T25/0112Z T41/0122Z
       
KPSP 011053Z 00000KT 10SM CLR 27/12 A2971 RMK AO2 SLP054 T02720117
KPSP 010520Z 0106/0206 VRB06KT P6SM SKC 
     FM012200 32012G20KT P6SM SKC 
     FM020500 VRB06KT P6SM SKC
       
KLAX 011053Z 08004KT 10SM BKN015 21/18 A2980 RMK AO2 SLP089 T02110178 $
KLAX 010905Z 0109/0212 12006KT P6SM OVC012 
     FM011800 25012KT P6SM FEW017 
     FM020300 25007KT P6SM BKN012 
     FM020900 VRB03KT P6SM OVC012
       
KCNO 011053Z AUTO 00000KT 5SM BR CLR 18/17 A2983 RMK AO2 SLP093 T01780172
KSMO 011051Z AUTO 00000KT 10SM OVC015 22/18 A2980 RMK AO2 SLP090 T02220178
KLGB 011053Z AUTO 12003KT 10SM BKN016 22/18 A2980 RMK AO2 SLP089 T02170183 TSNO
KLGB 011024Z 0110/0206 14006KT P6SM SCT015 
     FM011200 14006KT P6SM OVC012 
     FM011700 18008KT P6SM SKC 
     FM020300 VRB03KT P6SM OVC012
       
KVNY 011051Z AUTO 08003KT 8SM OVC010 21/18 A2982 RMK AO2 CIG 009V013 SLP086 T02110178
KVNY 010748Z 0108/0206 VRB03KT P6SM BKN010 
     FM011200 13006KT 4SM BR OVC008 
     FM011600 VRB03KT 6SM HZ SKC 
     FM012000 14009KT P6SM SKC 
     FM020300 VRB03KT P6SM SKC
       
KBUR 011053Z 18003KT 8SM HZ OVC009 21/18 A2981 RMK AO2 SLP082 T02060178
KBUR 010722Z 0107/0206 13006KT 5SM BR OVC010 
     FM011200 13006KT 4SM BR OVC008 
     FM011600 VRB03KT 6SM HZ SKC 
     FM012000 18009KT P6SM SKC 
     FM020300 VRB03KT P6SM SKC
       
KBFL 011054Z AUTO 00000KT 10SM CLR 23/03 A2981 RMK AO2 SLP088 T02280033
KBFL 010533Z 0106/0206 VRB04KT P6SM SKC 
     FM011900 31010KT P6SM SKC 
     FM020300 VRB04KT P6SM SKC
       
KPMD 011053Z AUTO 22007KT 10SM CLR 20/04 A2986 RMK AO2 SLP079 T02000039
KPMD 010538Z 0106/0206 25008KT P6SM SKC 
     FM012200 24015KT P6SM SKC 
     FM020400 24007KT P6SM SKC
       
KOXR 011110Z AUTO 07003KT 9SM SCT009 BKN018 18/16 A2980 RMK AO2 T01830156
KOXR 011025Z 0110/0206 VRB03KT P6SM SKC 
     FM011300 VRB03KT 4SM BR OVC007 
     FM011600 VRB03KT 6SM BR BKN010 
     FM011900 26012KT P6SM FEW015 
     FM020300 26007KT P6SM BKN007
       
KWJF 011056Z AUTO 25010KT 10SM CLR 23/01 A2984 RMK AO2 SLP082 T02280006
KWJF 011025Z 0110/0206 25015KT P6SM SKC 
     FM011400 23008KT P6SM SKC 
     FM012200 24015KT P6SM SKC 
     FM020400 24007KT P6SM SKC
       
KCMA 011055Z AUTO 09003KT 10SM CLR 20/16 A2980 RMK AO2 SLP097 T02000156 TSNO
KFAT 011053Z 32004KT 10SM CLR 23/12 A2980 RMK AO2 SLP085 T02280117
KFAT 010533Z 0106/0206 31008KT P6SM SKC 
     FM010900 33004KT P6SM SKC 
     FM020000 31010KT P6SM SKC
       
KEED 011056Z AUTO 30007KT 10SM CLR 32/07 A2972 RMK AO2 SLP026 T03170072
KEED 010520Z 0106/0206 23007KT P6SM SKC 
     FM011300 VRB05KT P6SM SKC 
     FM011900 19011KT P6SM SKC 
     FM020300 24008KT P6SM SKC
       
KLSV 011058Z AUTO 04006KT 10SM CLR 27/04 A2977 RMK AO2 SLP054 T02650038 CHINO RWY03R $
KLAS 011056Z 19008KT 10SM CLR 28/M02 A2975 RMK AO2 SLP042 T02831022 $
KLAS 010855Z 0109/0206 20009KT P6SM SKC 
     FM011600 07006KT P6SM SKC 
     FM012200 13010KT P6SM SKC 
     FM020300 20010KT P6SM SKC
       
KHII 011055Z AUTO 12011G18KT 10SM CLR 33/09 A2971 RMK AO2
KIFP 011055Z AUTO 14005KT 10SM CLR 29/08 A2972 RMK AO2 PWINO